Time;durP1;ratioP1;P1;durP2;ratioP2;P2;SDS_P1;SDS_P2;PMS_P1;PMS_P2;Temp;Humidity;BMP_temperature;BMP_pressure;BME280_temperature;BME280_humidity;BME280_pressure;Samples;Min_cycle;Max_cycle;Signal;HPM_P1;HPM_P2
2023/01/06 00:01:15;;;;;;;4.17;2.07;;;6.50;99.90;7.80;97342.00;;;;5026886;28;20707;-65
2023/01/06 00:04:05;;;;;;;2.40;2.20;;;6.50;99.90;7.70;97340.00;;;;5032462;28;20229;-65
2023/01/06 00:06:54;;;;;;;4.03;2.13;;;6.40;99.90;7.50;97353.00;;;;5032104;28;20614;-65
2023/01/06 00:09:43;;;;;;;3.63;2.40;;;6.30;99.90;7.70;97355.00;;;;5031807;28;20778;-65
2023/01/06 00:12:31;;;;;;;3.23;2.20;;;6.40;99.90;7.80;97342.00;;;;5028061;28;20220;-65
2023/01/06 00:15:21;;;;;;;2.67;1.80;;;6.40;99.90;7.70;97343.00;;;;5032031;28;20715;-64
2023/01/06 00:18:10;;;;;;;2.00;1.73;;;6.40;99.90;7.90;97332.00;;;;5031397;28;20601;-64
2023/01/06 00:21:01;;;;;;;2.00;1.50;;;6.40;99.90;7.80;97338.00;;;;5032342;28;20237;-64
2023/01/06 00:23:50;;;;;;;1.70;1.60;;;6.40;99.90;7.60;97337.00;;;;5030376;28;20225;-64
2023/01/06 00:26:38;;;;;;;3.80;2.00;;;6.40;99.90;7.20;97341.00;;;;5032368;28;20224;-63
2023/01/06 00:29:27;;;;;;;2.77;2.10;;;6.30;99.90;7.30;97337.00;;;;5023469;28;20206;-63
2023/01/06 00:32:17;;;;;;;8.40;3.33;;;6.10;99.90;7.20;97341.00;;;;5031200;28;20579;-64
2023/01/06 00:35:06;;;;;;;4.10;2.63;;;6.00;99.90;7.30;97346.00;;;;5029063;28;20259;-64
2023/01/06 00:37:56;;;;;;;3.50;2.73;;;6.00;99.90;7.20;97332.00;;;;5026097;28;20229;-63
2023/01/06 00:40:45;;;;;;;4.67;3.53;;;6.70;99.90;6.40;97336.00;;;;5021567;28;20259;-64
2023/01/06 00:43:34;;;;;;;6.40;2.60;;;5.80;99.90;6.80;97339.00;;;;5026747;28;20217;-64
2023/01/06 00:46:25;;;;;;;3.10;2.43;;;5.70;99.90;6.90;97340.00;;;;5032052;28;20243;-64
2023/01/06 00:49:14;;;;;;;3.13;2.33;;;5.60;99.90;6.40;97338.00;;;;5031828;28;20205;-64
2023/01/06 00:52:03;;;;;;;5.17;2.83;;;5.50;99.90;6.60;97345.00;;;;5030988;28;20343;-64
2023/01/06 00:54:53;;;;;;;5.03;3.60;;;5.30;99.90;6.70;97354.00;;;;5031767;28;20271;-64
2023/01/06 00:57:42;;;;;;;4.37;2.70;;;5.30;99.90;6.60;97348.00;;;;5031656;28;20205;-64
2023/01/06 01:00:31;;;;;;;5.10;3.00;;;5.30;99.90;6.40;97352.00;;;;5023352;28;20205;-64
2023/01/06 01:03:20;;;;;;;7.97;2.90;;;5.20;99.90;6.40;97361.00;;;;5027053;28;20217;-63
2023/01/06 01:06:10;;;;;;;3.20;2.50;;;5.20;99.90;6.50;97356.00;;;;5029651;28;20224;-65
2023/01/06 01:09:00;;;;;;;2.63;2.30;;;5.30;99.90;6.50;97362.00;;;;5026673;28;20194;-64
2023/01/06 01:14:57;;;;;;;5.87;2.90;;;5.30;99.90;6.20;97368.00;;;;5021590;28;20201;-65
2023/01/06 01:17:46;;;;;;;8.67;2.80;;;5.10;99.90;6.30;97373.00;;;;5030720;28;20217;-64
2023/01/06 01:20:35;;;;;;;2.70;2.50;;;5.10;99.90;5.70;97365.00;;;;5031230;28;20198;-63
2023/01/06 01:23:23;;;;;;;3.40;2.47;;;5.10;99.90;6.20;97370.00;;;;5032876;28;20224;-64
2023/01/06 01:26:12;;;;;;;5.63;2.83;;;5.10;99.90;6.00;97363.00;;;;5031799;28;20208;-64
2023/01/06 01:29:02;;;;;;;3.67;2.57;;;5.10;99.90;6.10;97366.00;;;;5020155;28;20243;-63
2023/01/06 01:31:51;;;;;;;3.30;2.27;;;5.00;99.90;6.40;97385.00;;;;5038241;28;20206;-64
2023/01/06 01:34:40;;;;;;;4.03;2.70;;;5.10;99.90;6.40;97384.00;;;;5030876;28;20217;-63
2023/01/06 01:37:29;;;;;;;6.40;2.87;;;5.20;99.90;6.60;97376.00;;;;5031728;28;20201;-64
2023/01/06 01:40:18;;;;;;;7.57;4.00;;;5.20;99.90;6.60;97394.00;;;;5030700;28;20714;-64
2023/01/06 01:43:10;;;;;;;9.67;3.40;;;5.30;99.90;6.80;97384.00;;;;5031290;28;20308;-64
2023/01/06 01:46:01;;;;;;;5.40;3.77;;;5.40;99.90;7.10;97389.00;;;;5031214;28;20241;-63
2023/01/06 01:48:50;;;;;;;3.87;3.07;;;5.50;99.90;7.00;97386.00;;;;5030872;28;20197;-64
2023/01/06 01:51:44;;;;;;;6.13;3.60;;;5.60;99.90;6.70;97386.00;;;;5031309;28;20741;-63
2023/01/06 01:54:35;;;;;;;3.43;2.50;;;5.60;99.90;6.90;97381.00;;;;5030451;28;20229;-64
2023/01/06 01:57:29;;;;;;;4.83;3.00;;;5.60;99.90;6.90;97379.00;;;;5031048;28;20202;-64
2023/01/06 02:00:19;;;;;;;2.67;2.43;;;5.60;99.90;7.00;97382.00;;;;5030323;28;20656;-64
2023/01/06 02:03:12;;;;;;;3.03;2.37;;;5.60;99.90;7.10;97384.00;;;;5031195;28;20225;-63
2023/01/06 02:06:04;;;;;;;3.37;2.73;;;5.70;99.90;7.20;97381.00;;;;5030167;28;20200;-65
2023/01/06 02:08:59;;;;;;;2.53;2.30;;;5.70;99.90;7.30;97385.00;;;;5028186;28;20585;-64
2023/01/06 02:11:50;;;;;;;4.47;3.03;;;5.80;99.90;7.10;97389.00;;;;5027528;28;20202;-64
2023/01/06 02:14:38;;;;;;;2.83;2.20;;;5.80;99.90;7.10;97385.00;;;;5029146;28;20225;-64
2023/01/06 02:18:11;;;;;;;3.53;2.73;;;5.80;99.90;7.10;97388.00;;;;5029711;28;20218;-64
2023/01/06 02:21:18;;;;;;;2.77;1.77;;;5.80;99.90;7.00;97389.00;;;;5021797;28;20621;-64
2023/01/06 02:24:49;;;;;;;2.97;2.20;;;5.70;99.90;7.20;97394.00;;;;5030701;28;20221;-63
2023/01/06 02:28:20;;;;;;;2.80;2.40;;;5.80;99.90;7.30;97388.00;;;;5029482;28;20197;-65
2023/01/06 02:31:47;;;;;;;3.63;2.13;;;5.80;99.90;7.10;97385.00;;;;5032056;28;20235;-63
2023/01/06 02:34:48;;;;;;;2.40;1.80;;;5.80;99.90;6.80;97392.00;;;;5023948;28;20229;-63
2023/01/06 02:37:52;;;;;;;2.83;1.90;;;5.70;99.90;6.90;97398.00;;;;5029216;28;20204;-63
2023/01/06 02:41:00;;;;;;;2.67;2.00;;;5.70;99.90;7.20;97400.00;;;;5021997;28;20676;-64
2023/01/06 02:44:01;;;;;;;2.40;2.13;;;5.70;99.90;7.20;97394.00;;;;5029860;28;20224;-64
2023/01/06 02:47:15;;;;;;;1.63;1.23;;;5.80;99.90;7.50;97392.00;;;;5029758;28;20236;-64
2023/01/06 02:50:19;;;;;;;1.70;1.60;;;5.90;99.90;7.60;97391.00;;;;5029025;28;20209;-64
2023/01/06 02:53:16;;;;;;;1.83;1.57;;;6.00;99.90;7.40;97380.00;;;;5028978;28;20224;-65
2023/01/06 02:56:06;;;;;;;2.00;1.57;;;6.00;99.90;7.00;97380.00;;;;5029279;28;20197;-65
2023/01/06 02:59:02;;;;;;;2.37;1.70;;;6.00;99.90;7.10;97374.00;;;;5021183;28;20228;-64
2023/01/06 03:01:53;;;;;;;2.00;1.77;;;5.90;99.90;7.10;97379.00;;;;5029059;28;20212;-64
2023/01/06 03:04:47;;;;;;;3.07;2.23;;;5.90;99.90;7.00;97380.00;;;;5029594;28;20225;-64
2023/01/06 03:07:37;;;;;;;2.50;1.80;;;5.80;99.90;7.30;97385.00;;;;5029266;28;20205;-63
2023/01/06 03:10:27;;;;;;;2.83;2.37;;;5.80;99.90;7.30;97376.00;;;;5029093;28;20259;-63
2023/01/06 03:13:24;;;;;;;2.07;1.50;;;5.80;99.90;7.10;97391.00;;;;5029044;28;20253;-63
2023/01/06 03:16:14;;;;;;;2.43;1.77;;;5.80;99.90;7.30;97381.00;;;;5028791;28;20254;-64
2023/01/06 03:19:03;;;;;;;3.37;1.63;;;5.90;99.90;7.30;97383.00;;;;5028613;28;20247;-64
2023/01/06 03:21:54;;;;;;;2.13;1.40;;;5.90;99.90;7.30;97384.00;;;;5028518;28;20193;-63
2023/01/06 03:24:45;;;;;;;7.13;1.77;;;5.90;99.90;7.50;97386.00;;;;5029057;28;20224;-64
2023/01/06 03:27:34;;;;;;;5.27;1.87;;;5.90;99.90;7.50;97375.00;;;;5034521;28;20197;-63
2023/01/06 03:30:27;;;;;;;2.30;2.10;;;6.00;99.90;7.20;97384.00;;;;5036193;28;20201;-64
2023/01/06 03:33:22;;;;;;;2.20;1.97;;;6.00;99.90;6.90;97380.00;;;;5034521;28;20274;-63
2023/01/06 03:36:27;;;;;;;1.63;1.50;;;5.80;99.90;7.30;97372.00;;;;5028873;28;20197;-63
2023/01/06 03:39:25;;;;;;;2.20;1.93;;;5.80;99.90;7.20;97372.00;;;;5035414;28;20224;-63
2023/01/06 03:45:55;;;;;;;2.47;1.73;;;5.80;99.90;7.10;97354.00;;;;5036127;28;20205;-62
2023/01/06 03:48:56;;;;;;;1.87;1.73;;;5.80;99.90;7.30;97340.00;;;;5036252;28;20251;-64
2023/01/06 03:51:53;;;;;;;3.47;1.90;;;5.80;99.90;6.90;97323.00;;;;5034676;28;20205;-64
2023/01/06 03:54:54;;;;;;;2.13;1.87;;;5.70;99.90;6.90;97314.00;;;;5035662;28;20225;-64
2023/01/06 03:57:46;;;;;;;1.40;1.30;;;5.70;99.90;6.90;97320.00;;;;5035233;28;20472;-64
2023/01/06 04:00:37;;;;;;;1.77;1.67;;;5.60;99.90;6.30;97308.00;;;;5035947;28;20649;-64
2023/01/06 04:03:26;;;;;;;2.77;2.13;;;5.50;99.90;6.50;97324.00;;;;5035047;28;20229;-64
2023/01/06 04:06:15;;;;;;;1.67;1.57;;;5.40;99.90;6.80;97309.00;;;;5035872;28;20193;-63
2023/01/06 04:09:04;;;;;;;2.43;1.60;;;5.40;99.90;6.80;97316.00;;;;5036326;28;20193;-64
2023/01/06 04:15:00;;;;;;;2.07;1.57;;;5.50;99.90;6.70;97320.00;;;;5027715;28;20204;-63
2023/01/06 04:17:49;;;;;;;2.83;1.50;;;5.50;99.90;6.80;97329.00;;;;5035111;28;20212;-64
2023/01/06 04:20:38;;;;;;;2.67;1.73;;;5.50;99.90;6.40;97337.00;;;;5035212;28;20761;-66
2023/01/06 04:23:31;;;;;;;2.47;2.03;;;5.50;99.90;6.70;97353.00;;;;5035348;28;20347;-63
2023/01/06 04:26:20;;;;;;;1.40;1.30;;;5.50;99.90;6.80;97346.00;;;;5035774;28;20209;-63
2023/01/06 04:29:10;;;;;;;1.87;1.33;;;5.50;99.90;6.80;97338.00;;;;5024758;28;20243;-63
2023/01/06 04:31:59;;;;;;;4.17;1.50;;;5.40;99.90;6.90;97338.00;;;;5042045;28;20633;-63
2023/01/06 04:34:48;;;;;;;0.97;0.90;;;5.40;99.90;7.00;97344.00;;;;5035098;28;20216;-63
2023/01/06 04:37:37;;;;;;;2.07;1.30;;;5.50;99.90;6.90;97345.00;;;;5032708;28;20554;-63
2023/01/06 04:40:25;;;;;;;1.50;1.07;;;5.50;99.90;6.80;97352.00;;;;5032252;28;20268;-63
2023/01/06 04:43:15;;;;;;;1.33;1.10;;;5.60;99.90;6.70;97348.00;;;;5031397;28;20221;-63
2023/01/06 04:46:05;;;;;;;1.77;0.90;;;5.50;99.90;6.70;97359.00;;;;5032011;28;20575;-62
2023/01/06 04:48:54;;;;;;;1.37;0.93;;;5.50;99.90;6.40;97367.00;;;;5031827;28;20750;-63
2023/01/06 04:51:42;;;;;;;2.53;2.00;;;5.30;99.90;6.30;97355.00;;;;5019171;28;20212;-62
2023/01/06 04:54:31;;;;;;;1.50;1.40;;;5.20;99.90;6.10;97351.00;;;;5032103;28;20692;-63
2023/01/06 04:57:20;;;;;;;1.70;1.37;;;5.20;99.90;6.50;97367.00;;;;5031278;28;20197;-63
2023/01/06 05:00:10;;;;;;;1.33;1.13;;;5.20;99.90;6.20;97371.00;;;;5031520;28;20228;-62
2023/01/06 05:03:00;;;;;;;1.40;1.30;;;5.20;99.90;6.30;97376.00;;;;5024462;28;20247;-64
2023/01/06 05:05:49;;;;;;;1.27;1.17;;;5.20;99.90;6.60;97386.00;;;;5028407;28;20212;-63
2023/01/06 05:08:39;;;;;;;1.27;1.10;;;5.20;99.90;6.70;97387.00;;;;5024899;28;20197;-63
2023/01/06 05:11:28;;;;;;;1.63;0.97;;;5.20;99.90;6.60;97392.00;;;;5030857;28;20205;-64
2023/01/06 05:14:17;;;;;;;1.40;1.00;;;5.30;99.90;6.30;97385.00;;;;5021013;28;20221;-63
2023/01/06 05:17:08;;;;;;;1.07;0.87;;;5.20;99.90;6.30;97394.00;;;;5031529;28;20867;-64
2023/01/06 05:19:58;;;;;;;1.83;0.87;;;5.20;99.90;6.30;97391.00;;;;5030487;28;20224;-63
2023/01/06 05:22:47;;;;;;;5.57;1.10;;;5.10;99.90;6.10;97398.00;;;;5030650;28;20214;-62
2023/01/06 05:25:36;;;;;;;2.03;1.17;;;5.00;99.90;6.10;97396.00;;;;5031588;28;20200;-64
2023/01/06 05:28:25;;;;;;;0.83;0.83;;;4.90;99.90;6.10;97402.00;;;;5030016;28;20291;-64
2023/01/06 05:31:14;;;;;;;0.93;0.93;;;4.90;99.90;5.70;97413.00;;;;5037348;28;20201;-64
2023/01/06 05:34:03;;;;;;;1.50;1.40;;;4.80;99.90;5.80;97402.00;;;;5028338;28;20224;-64
2023/01/06 05:36:53;;;;;;;1.67;0.93;;;4.70;99.90;6.00;97402.00;;;;5031118;28;20213;-62
2023/01/06 05:39:41;;;;;;;1.80;1.70;;;4.70;99.90;5.90;97406.00;;;;5029967;28;20204;-63
2023/01/06 05:42:30;;;;;;;1.77;1.20;;;4.70;99.90;5.10;97412.00;;;;5030500;28;20202;-65
2023/01/06 05:45:19;;;;;;;2.60;1.87;;;4.50;99.90;5.40;97412.00;;;;5018650;28;20201;-64
2023/01/06 05:48:07;;;;;;;1.33;1.13;;;4.40;99.90;5.40;97412.00;;;;5030077;28;20206;-63
2023/01/06 05:51:02;;;;;;;1.33;1.00;;;4.40;99.90;5.50;97423.00;;;;5030568;28;20248;-64
2023/01/06 05:53:52;;;;;;;1.57;1.17;;;4.40;99.90;4.90;97423.00;;;;5024397;28;20218;-63
2023/01/06 05:56:41;;;;;;;1.07;0.97;;;4.30;99.90;5.20;97432.00;;;;5030561;28;20205;-64
2023/01/06 05:59:29;;;;;;;1.57;0.90;;;4.30;99.90;5.40;97423.00;;;;5030887;28;20197;-63
2023/01/06 06:02:18;;;;;;;1.63;1.17;;;4.30;99.90;5.70;97442.00;;;;5030172;28;20279;-62
2023/01/06 06:05:08;;;;;;;1.43;0.93;;;4.40;99.90;5.70;97444.00;;;;5030772;28;20201;-64
2023/01/06 06:07:57;;;;;;;1.33;1.13;;;4.50;99.90;5.60;97437.00;;;;5029157;28;20229;-63
2023/01/06 06:10:47;;;;;;;1.00;0.90;;;4.50;99.90;5.50;97445.00;;;;5029577;28;20201;-63
2023/01/06 06:13:36;;;;;;;1.70;1.13;;;4.40;99.90;5.40;97449.00;;;;5029876;28;20225;-64
2023/01/06 06:16:27;;;;;;;3.63;1.20;;;4.40;99.90;5.20;97447.00;;;;5027672;28;20597;-64
2023/01/06 06:19:16;;;;;;;1.03;1.00;;;4.40;99.90;5.20;97437.00;;;;5021360;28;20198;-64
2023/01/06 06:22:04;;;;;;;0.77;0.77;;;4.30;99.90;5.40;97442.00;;;;5027622;28;20228;-63
2023/01/06 06:24:53;;;;;;;1.43;1.33;;;4.20;99.90;5.20;97440.00;;;;5018925;28;20300;-63
2023/01/06 06:27:43;;;;;;;1.00;1.00;;;4.20;99.90;5.20;97440.00;;;;5028714;28;20426;-64
2023/01/06 06:30:32;;;;;;;0.73;0.73;;;4.10;99.90;5.20;97444.00;;;;5029783;28;20228;-63
2023/01/06 06:33:21;;;;;;;0.83;0.83;;;4.20;99.90;5.50;97446.00;;;;5029124;28;20217;-63
2023/01/06 06:36:14;;;;;;;0.80;0.80;;;4.10;99.90;5.60;97449.00;;;;5024145;28;20197;-63
2023/01/06 06:39:04;;;;;;;0.70;0.60;;;4.20;99.90;5.50;97449.00;;;;5029614;28;20641;-63
2023/01/06 06:41:52;;;;;;;1.13;1.03;;;4.20;99.90;5.50;97446.00;;;;5028167;28;20232;-64
2023/01/06 06:44:42;;;;;;;1.43;0.90;;;4.20;99.90;5.30;97448.00;;;;5027794;28;20902;-63
2023/01/06 06:47:31;;;;;;;1.17;0.80;;;4.20;99.90;4.90;97454.00;;;;5029275;28;20209;-62
2023/01/06 06:50:20;;;;;;;0.50;0.50;;;4.10;99.90;4.80;97455.00;;;;5018051;28;20569;-64
2023/01/06 06:53:09;;;;;;;0.93;0.70;;;4.10;99.90;5.30;97457.00;;;;5027653;28;20637;-64
2023/01/06 06:55:58;;;;;;;1.40;0.93;;;4.40;99.90;5.70;97461.00;;;;5029330;28;20201;-63
2023/01/06 06:58:46;;;;;;;0.93;0.93;;;4.20;99.90;5.60;97462.00;;;;5029519;28;20208;-64
2023/01/06 07:01:36;;;;;;;1.10;1.10;;;4.30;99.90;5.50;97465.00;;;;5028556;28;20704;-64
2023/01/06 07:04:26;;;;;;;1.03;0.93;;;4.20;99.90;5.80;97460.00;;;;5029270;28;20304;-64
2023/01/06 07:07:14;;;;;;;0.73;0.73;;;4.40;99.90;5.50;97471.00;;;;5029501;28;20197;-63
2023/01/06 07:10:04;;;;;;;0.77;0.70;;;4.30;99.90;4.70;97466.00;;;;5029521;28;20260;-64
2023/01/06 07:12:52;;;;;;;0.90;0.60;;;4.20;99.90;4.90;97453.00;;;;5024351;28;20228;-64
2023/01/06 07:15:42;;;;;;;0.67;0.67;;;3.70;99.90;5.20;97455.00;;;;5023712;28;20206;-64
2023/01/06 07:18:32;;;;;;;0.57;0.57;;;4.10;99.90;5.70;97454.00;;;;5027237;28;20220;-64
2023/01/06 07:21:21;;;;;;;0.93;0.80;;;4.20;99.90;5.50;97461.00;;;;5028112;28;20287;-64
2023/01/06 07:24:10;;;;;;;1.27;0.67;;;4.20;99.90;5.10;97459.00;;;;5025838;28;20217;-64
2023/01/06 07:26:59;;;;;;;0.60;0.60;;;4.20;99.90;5.30;97461.00;;;;5028791;28;20209;-64
2023/01/06 07:29:47;;;;;;;0.93;0.93;;;4.20;99.90;5.80;97466.00;;;;5027224;28;20680;-64
2023/01/06 07:32:36;;;;;;;1.43;1.10;;;4.30;99.90;6.20;97469.00;;;;5027736;28;20247;-63
2023/01/06 07:35:26;;;;;;;1.40;1.30;;;4.50;99.90;6.20;97470.00;;;;5026924;28;20209;-63
2023/01/06 07:38:15;;;;;;;1.53;1.43;;;4.60;99.90;6.20;97465.00;;;;5028214;28;20228;-65
2023/01/06 07:41:04;;;;;;;1.53;1.10;;;4.70;99.90;6.10;97460.00;;;;5023700;28;20193;-63
2023/01/06 07:43:53;;;;;;;1.37;1.07;;;4.80;99.90;6.30;97445.00;;;;5026884;28;20236;-63
2023/01/06 07:46:41;;;;;;;1.73;1.07;;;4.90;99.90;6.50;97471.00;;;;5026999;28;20201;-64
2023/01/06 07:49:30;;;;;;;1.30;1.00;;;5.00;99.90;6.70;97451.00;;;;5025155;28;20202;-64
2023/01/06 07:52:20;;;;;;;4.50;1.57;;;5.10;99.90;6.80;97445.00;;;;5026737;28;20197;-63
2023/01/06 07:55:09;;;;;;;0.90;0.90;;;5.30;99.90;7.10;97466.00;;;;5026587;28;20837;-64
2023/01/06 07:57:58;;;;;;;2.40;0.90;;;5.40;99.90;7.00;97459.00;;;;5027532;28;20205;-64
2023/01/06 08:00:47;;;;;;;8.47;4.13;;;5.70;99.90;7.10;97458.00;;;;5027106;28;20208;-64
2023/01/06 08:03:36;;;;;;;1.57;1.37;;;5.70;99.90;7.30;97458.00;;;;5028374;28;20818;-64
2023/01/06 08:06:26;;;;;;;2.40;1.90;;;5.80;99.90;7.30;97455.00;;;;5028383;28;20263;-63
2023/01/06 08:09:16;;;;;;;1.60;1.50;;;5.90;99.90;7.60;97458.00;;;;5026607;28;20251;-65
2023/01/06 08:12:05;;;;;;;1.07;0.97;;;6.00;99.90;7.80;97455.00;;;;5027770;28;20208;-64
2023/01/06 08:14:54;;;;;;;1.47;1.37;;;6.20;99.90;8.10;97455.00;;;;5029888;28;20240;-63
2023/01/06 08:17:42;;;;;;;1.33;1.00;;;6.30;99.90;8.30;97456.00;;;;5028557;28;20209;-62
2023/01/06 08:20:32;;;;;;;1.70;1.00;;;6.50;99.90;8.30;97450.00;;;;5026017;28;20848;-64
2023/01/06 08:23:21;;;;;;;1.77;1.00;;;6.60;99.90;8.20;97443.00;;;;5029600;28;20237;-64
2023/01/06 08:26:14;;;;;;;2.07;1.50;;;6.70;99.90;8.20;97437.00;;;;5022241;28;20209;-62
2023/01/06 08:29:03;;;;;;;2.47;1.20;;;6.80;99.90;8.40;97441.00;;;;5028478;28;20212;-63
2023/01/06 08:31:52;;;;;;;1.47;1.37;;;6.80;99.90;8.60;97441.00;;;;5027668;28;20208;-64
2023/01/06 08:34:49;;;;;;;1.37;1.03;;;7.00;99.90;8.70;97448.00;;;;5030513;28;20221;-64
2023/01/06 08:37:38;;;;;;;1.63;1.00;;;7.10;99.90;8.70;97441.00;;;;5029526;28;20263;-63
2023/01/06 08:40:27;;;;;;;4.17;1.57;;;7.20;99.90;8.60;97453.00;;;;5025649;28;20200;-64
2023/01/06 08:43:17;;;;;;;8.07;1.67;;;7.20;99.90;8.50;97448.00;;;;5028968;28;20229;-64
2023/01/06 08:46:08;;;;;;;3.80;1.87;;;7.30;99.90;8.80;97454.00;;;;5028814;28;20685;-65
2023/01/06 08:48:57;;;;;;;3.27;2.97;;;7.30;99.90;8.70;97461.00;;;;5030651;28;20201;-64
2023/01/06 08:51:46;;;;;;;4.87;3.47;;;7.40;99.90;8.60;97467.00;;;;5019814;28;20217;-64
2023/01/06 08:54:34;;;;;;;5.90;5.23;;;7.40;99.90;8.60;97466.00;;;;5030559;28;20233;-65
2023/01/06 08:57:23;;;;;;;4.43;4.00;;;7.40;99.90;8.80;97463.00;;;;5030130;28;20213;-61
2023/01/06 09:00:15;;;;;;;5.73;3.67;;;7.40;99.90;8.90;97463.00;;;;5025154;28;20201;-65
2023/01/06 09:03:04;;;;;;;3.80;2.17;;;7.50;99.90;9.00;97461.00;;;;5027539;28;20224;-64
2023/01/06 09:05:54;;;;;;;5.40;3.27;;;7.50;99.90;8.90;97465.00;;;;5030779;28;20190;-64
2023/01/06 09:08:43;;;;;;;2.77;1.57;;;7.60;99.90;9.20;97460.00;;;;5030063;28;20197;-64
2023/01/06 09:11:32;;;;;;;1.53;1.43;;;7.60;99.90;8.70;97459.00;;;;5019549;28;20665;-64
2023/01/06 09:14:20;;;;;;;6.63;1.87;;;7.60;99.90;8.90;97463.00;;;;5030749;28;20257;-65
2023/01/06 09:17:10;;;;;;;3.33;1.67;;;7.60;99.90;9.10;97464.00;;;;5030702;28;20604;-64
2023/01/06 09:19:59;;;;;;;1.20;1.10;;;7.70;99.90;8.90;97464.00;;;;5030244;28;20255;-65
2023/01/06 09:22:48;;;;;;;1.53;0.97;;;7.70;99.90;8.50;97457.00;;;;5030046;28;20300;-64
2023/01/06 09:25:36;;;;;;;1.53;1.43;;;7.60;99.90;8.50;97463.00;;;;5030171;28;20578;-65
2023/01/06 09:28:25;;;;;;;1.20;1.10;;;7.60;99.90;8.30;97453.00;;;;5030198;28;20213;-67
2023/01/06 09:31:16;;;;;;;1.53;1.07;;;7.50;99.90;8.30;97459.00;;;;5030199;28;20208;-68
2023/01/06 09:34:06;;;;;;;0.67;0.60;;;7.50;99.90;8.70;97453.00;;;;5028948;28;20224;-64
2023/01/06 09:36:55;;;;;;;1.10;1.00;;;7.50;99.90;9.00;97441.00;;;;5030246;28;20205;-64
2023/01/06 09:39:44;;;;;;;2.07;1.23;;;7.60;99.90;9.20;97452.00;;;;5029971;28;20205;-64
2023/01/06 09:42:54;;;;;;;1.73;1.50;;;7.60;99.90;9.50;97454.00;;;;5029360;28;20228;-64
2023/01/06 09:45:49;;;;;;;1.80;1.10;;;7.80;99.90;10.00;97460.00;;;;5023203;28;20201;-64
2023/01/06 09:48:43;;;;;;;1.33;1.20;;;8.10;99.90;10.10;97442.00;;;;5022785;28;20631;-65
2023/01/06 09:51:34;;;;;;;1.47;1.37;;;8.30;99.90;10.10;97445.00;;;;5029758;28;20244;-65
2023/01/06 09:54:28;;;;;;;1.83;1.30;;;8.50;99.90;10.40;97445.00;;;;5029062;28;20616;-64
2023/01/06 09:57:22;;;;;;;1.50;1.07;;;8.60;99.90;10.40;97428.00;;;;5030296;28;20207;-65
2023/01/06 10:00:37;;;;;;;3.00;1.40;;;8.70;99.90;10.50;97428.00;;;;5029719;28;20707;-65
2023/01/06 10:03:27;;;;;;;2.40;1.90;;;8.80;99.90;10.80;97425.00;;;;5029608;28;20712;-64
2023/01/06 10:06:33;;;;;;;2.37;1.57;;;9.00;99.90;11.10;97417.00;;;;5017292;28;20224;-64
2023/01/06 10:09:31;;;;;;;1.03;0.93;;;9.20;99.90;11.30;97416.00;;;;5029563;28;20204;-64
2023/01/06 10:12:37;;;;;;;2.13;1.17;;;9.40;99.90;11.30;97410.00;;;;5029789;28;20237;-65
2023/01/06 10:15:40;;;;;;;2.47;1.33;;;9.60;99.90;11.50;97401.00;;;;5021137;28;20221;-65
2023/01/06 10:18:41;;;;;;;1.87;1.03;;;9.80;99.90;11.70;97402.00;;;;5026965;28;21035;-64
2023/01/06 10:21:40;;;;;;;2.60;1.47;;;9.90;99.90;11.80;97399.00;;;;5027378;28;20267;-65
2023/01/06 10:24:53;;;;;;;1.50;1.40;;;10.10;99.90;12.10;97391.00;;;;5023037;28;20229;-64
2023/01/06 10:27:49;;;;;;;2.43;1.50;;;10.30;99.90;12.80;97393.00;;;;5027853;28;20198;-64
2023/01/06 10:30:43;;;;;;;1.50;1.10;;;10.50;99.90;13.30;97388.00;;;;5028450;28;20197;-65
2023/01/06 10:33:37;;;;;;;3.40;1.65;;;11.20;99.90;13.90;97380.00;;;;5024860;28;20767;-64
2023/01/06 10:36:31;;;;;;;3.85;1.70;;;;;14.70;97382.00;;;;5026028;28;20399;-64
2023/01/06 10:39:26;;;;;;;2.30;1.48;;;13.70;99.90;15.10;97381.00;;;;5027786;28;20806;-65
2023/01/06 10:45:29;;;;;;;;;;;15.40;99.90;15.50;97378.00;;;;5022536;28;20022;-65
2023/01/06 10:48:20;;;;;;;;;;;15.70;99.90;16.00;97376.00;;;;5028994;28;19925;-65
2023/01/06 10:51:31;;;;;;;;;;;16.00;99.90;16.00;97375.00;;;;5029563;28;19936;-66
2023/01/06 10:54:24;;;;;;;;;;;16.10;99.90;16.40;97375.00;;;;5023008;28;20450;-65
2023/01/06 10:57:19;;;;;;;;;;;16.30;99.90;16.80;97381.00;;;;5025741;28;20380;-65
2023/01/06 11:00:11;;;;;;;;;;;16.50;99.90;17.10;97374.00;;;;5026016;28;20710;-64
2023/01/06 11:03:03;;;;;;;;;;;16.90;99.40;17.60;97372.00;;;;5029693;28;19921;-63
2023/01/06 11:06:08;;;;;;;;;;;17.10;98.60;17.50;97370.00;;;;5029938;28;19920;-65
2023/01/06 11:08:57;;;;;;;;;;;17.20;96.70;17.70;97357.00;;;;5025954;28;19932;-64
2023/01/06 11:11:48;;;;;;;;;;;17.20;96.70;17.80;97348.00;;;;5030161;28;19921;-65
2023/01/06 11:14:37;;;;;;;1.50;1.07;;;17.30;96.10;17.90;97361.00;;;;5017910;28;20717;-65
2023/01/06 11:17:28;;;;;;;2.03;0.97;;;17.50;95.20;17.90;97363.00;;;;5028589;28;20600;-65
2023/01/06 11:20:32;;;;;;;1.73;1.30;;;17.60;94.80;18.10;97350.00;;;;5023623;28;20201;-64
2023/01/06 11:23:23;;;;;;;1.53;1.43;;;17.60;93.90;18.00;97346.00;;;;5027827;28;20716;-64
2023/01/06 11:26:18;;;;;;;1.40;1.20;;;17.60;93.60;18.50;97345.00;;;;5027442;28;20255;-64
2023/01/06 11:29:24;;;;;;;1.07;0.97;;;17.70;93.40;19.20;97332.00;;;;5025990;28;20677;-63
2023/01/06 11:32:16;;;;;;;0.87;0.70;;;16.70;93.00;19.60;97334.00;;;;5024915;28;20204;-64
2023/01/06 11:35:10;;;;;;;0.80;0.60;;;18.70;92.20;19.40;97332.00;;;;5026579;28;20557;-64
2023/01/06 11:38:00;;;;;;;1.73;1.00;;;19.00;90.60;19.70;97331.00;;;;5024957;28;20589;-64
2023/01/06 11:40:50;;;;;;;1.53;1.23;;;19.10;90.80;19.70;97342.00;;;;5022157;28;20257;-65
2023/01/06 11:43:45;;;;;;;5.57;1.30;;;19.20;90.30;19.30;97318.00;;;;5021534;28;20225;-64
2023/01/06 11:46:38;;;;;;;2.20;1.43;;;19.10;89.00;19.20;97316.00;;;;5024346;28;20212;-64
2023/01/06 11:49:32;;;;;;;1.83;1.20;;;18.90;89.00;19.70;97315.00;;;;5030143;28;20626;-64
2023/01/06 11:52:24;;;;;;;0.80;0.80;;;19.00;88.40;19.80;97309.00;;;;5025545;28;20276;-65
2023/01/06 11:55:22;;;;;;;1.10;1.00;;;19.10;86.90;20.20;97317.00;;;;5027102;28;20201;-65
2023/01/06 11:58:18;;;;;;;1.27;0.90;;;19.30;86.90;19.80;97300.00;;;;5021105;28;20201;-65
2023/01/06 12:01:13;;;;;;;2.10;1.30;;;19.40;85.50;20.10;97297.00;;;;5030719;28;20719;-65
2023/01/06 12:04:12;;;;;;;1.50;1.20;;;19.30;84.30;20.30;97300.00;;;;5032050;28;20696;-65
2023/01/06 12:07:14;;;;;;;2.50;1.07;;;19.30;85.20;20.50;97288.00;;;;5031827;28;20685;-65
2023/01/06 12:10:11;;;;;;;1.60;1.30;;;19.40;84.30;20.90;97288.00;;;;5023445;28;20208;-65
2023/01/06 12:12:59;;;;;;;1.17;1.00;;;19.50;84.50;18.70;97279.00;;;;5025973;28;20712;-65
2023/01/06 12:15:58;;;;;;;1.33;1.23;;;19.30;81.20;18.70;97265.00;;;;5030818;28;20687;-64
2023/01/06 12:18:47;;;;;;;1.20;1.00;;;18.80;82.40;19.00;97264.00;;;;5025939;28;20213;-64
2023/01/06 12:21:38;;;;;;;2.07;1.30;;;18.60;83.10;19.60;97273.00;;;;5031475;28;20205;-64
2023/01/06 12:24:28;;;;;;;1.63;1.53;;;18.60;81.30;18.70;97265.00;;;;5019562;28;20240;-63
2023/01/06 12:27:29;;;;;;;2.20;1.67;;;18.30;82.90;20.70;97267.00;;;;5029482;28;20205;-64
2023/01/06 12:30:29;;;;;;;2.07;1.40;;;18.60;84.20;20.30;97267.00;;;;5030175;28;20607;-65
2023/01/06 12:33:23;;;;;;;3.37;1.20;;;18.90;84.90;20.70;97260.00;;;;5028947;28;20225;-64
2023/01/06 12:36:19;;;;;;;1.60;1.50;;;19.20;82.80;20.40;97273.00;;;;5026422;28;20271;-64
2023/01/06 12:39:17;;;;;;;1.83;1.30;;;20.20;80.00;20.30;97263.00;;;;5029663;28;20509;-64
2023/01/06 12:42:16;;;;;;;1.43;1.10;;;19.30;78.80;19.70;97255.00;;;;5021065;28;20201;-65
2023/01/06 12:45:14;;;;;;;3.40;1.10;;;19.00;80.30;19.30;97260.00;;;;5029104;28;20612;-64
2023/01/06 12:48:13;;;;;;;1.27;1.10;;;19.00;78.50;19.50;97237.00;;;;5025196;28;20294;-65
2023/01/06 12:51:13;;;;;;;1.47;0.90;;;18.70;80.50;20.60;97240.00;;;;5024361;28;20206;-64
2023/01/06 12:54:12;;;;;;;1.80;0.90;;;19.00;79.30;21.40;97241.00;;;;5024872;28;20300;-64
2023/01/06 12:57:36;;;;;;;1.17;1.07;;;19.30;78.60;22.70;97243.00;;;;5027937;28;20295;-64
2023/01/06 13:00:47;;;;;;;1.63;1.13;;;19.90;78.20;22.60;97236.00;;;;5024474;28;20209;-64
2023/01/06 13:04:10;;;;;;;2.73;1.33;;;20.40;76.60;23.20;97237.00;;;;5028246;28;20219;-64
2023/01/06 13:07:11;;;;;;;3.17;1.50;;;21.00;74.70;24.30;97226.00;;;;5023874;28;20203;-63
2023/01/06 13:10:16;;;;;;;1.57;1.27;;;21.70;74.00;24.70;97233.00;;;;5021360;28;20199;-64
2023/01/06 13:13:59;;;;;;;1.37;1.10;;;22.40;72.20;24.40;97233.00;;;;5023956;28;20252;-64
2023/01/06 13:16:56;;;;;;;3.33;1.60;;;22.80;69.20;24.40;97229.00;;;;5026263;28;20604;-63